Time;durP1;ratioP1;P1;durP2;ratioP2;P2;SDS_P1;SDS_P2;PMS_P1;PMS_P2;Temp;Humidity;BMP_temperature;BMP_pressure;BME280_temperature;BME280_humidity;BME280_pressure;Samples;Min_cycle;Max_cycle;Signal;HPM_P1;HPM_P2
2022/01/30 00:00:45;;;;;;;189.98;60.60;;;;;;;;;;5070260;28;20040;-85
2022/01/30 00:03:12;;;;;;;184.80;58.05;;;;;;;;;;5071139;28;20033;-84
2022/01/30 00:05:38;;;;;;;112.97;44.40;;;;;;;;;;5064427;28;20048;-85
2022/01/30 00:08:18;;;;;;;93.00;39.30;;;;;;;;;;5054053;28;20044;-84
2022/01/30 00:10:49;;;;;;;105.07;41.42;;;;;;;;;;5054435;28;20036;-84
2022/01/30 00:13:20;;;;;;;92.72;40.75;;;;;;;;;;5054789;28;20033;-85
2022/01/30 00:16:06;;;;;;;100.57;38.78;;;;;;;;;;5062968;28;20036;-84
2022/01/30 00:18:46;;;;;;;128.98;48.05;;;;;;;;;;5058262;28;20418;-85
2022/01/30 00:23:55;;;;;;;157.25;54.92;;;;;;;;;;5053509;28;20081;-84
2022/01/30 00:26:28;;;;;;;148.95;51.10;;;;;;;;;;5075214;28;20060;-85
2022/01/30 00:29:01;;;;;;;143.15;53.15;;;;;;;;;;5074016;28;20032;-84
2022/01/30 00:31:28;;;;;;;140.52;49.45;;;;;;;;;;5072210;28;20487;-84
2022/01/30 00:34:11;;;;;;;141.48;50.58;;;;;;;;;;5053875;28;20028;-85
2022/01/30 00:36:38;;;;;;;155.70;54.45;;;;;;;;;;5053165;28;20032;-85
2022/01/30 00:39:14;;;;;;;145.63;49.75;;;;;;;;;;5052956;28;20029;-85
2022/01/30 00:41:41;;;;;;;179.52;60.05;;;;;;;;;;5069238;28;20540;-85
2022/01/30 00:44:07;;;;;;;198.63;60.42;;;;;;;;;;5059630;28;20056;-84
2022/01/30 00:46:51;;;;;;;159.20;54.75;;;;;;;;;;5053678;28;20184;-84
2022/01/30 00:49:17;;;;;;;136.23;49.40;;;;;;;;;;5053899;28;20037;-84
2022/01/30 00:51:46;;;;;;;112.97;43.85;;;;;;;;;;5053749;28;20029;-84
2022/01/30 00:54:12;;;;;;;85.10;37.03;;;;;;;;;;5053630;28;20036;-84
2022/01/30 00:56:51;;;;;;;92.53;37.72;;;;;;;;;;5054709;28;20062;-84
2022/01/30 00:59:52;;;;;;;88.35;35.33;;;;;;;;;;5053568;28;20040;-84
2022/01/30 01:02:18;;;;;;;83.70;35.80;;;;;;;;;;5056482;28;20041;-85
2022/01/30 01:04:45;;;;;;;102.88;41.03;;;;;;;;;;5052882;28;20045;-85
2022/01/30 01:07:22;;;;;;;119.55;44.63;;;;;;;;;;5053482;28;20037;-84
2022/01/30 01:10:29;;;;;;;132.70;48.47;;;;;;;;;;5046918;28;20043;-84
2022/01/30 01:13:01;;;;;;;134.65;49.03;;;;;;;;;;5059668;28;20025;-85
2022/01/30 01:23:55;;;;;;;105.38;43.20;;;;;;;;;;5071268;28;20103;-85
2022/01/30 01:26:24;;;;;;;121.30;46.42;;;;;;;;;;5052623;28;20488;-86
2022/01/30 01:29:07;;;;;;;127.63;45.00;;;;;;;;;;5053714;28;20445;-85
2022/01/30 01:31:33;;;;;;;126.32;44.58;;;;;;;;;;5069591;28;20063;-84
2022/01/30 01:36:42;;;;;;;154.48;51.88;;;;;;;;;;5054014;28;20024;-85
2022/01/30 01:39:10;;;;;;;149.32;49.80;;;;;;;;;;5054518;28;20029;-84
2022/01/30 01:41:37;;;;;;;110.97;39.03;;;;;;;;;;5053499;28;20032;-84
2022/01/30 01:44:39;;;;;;;109.22;41.95;;;;;;;;;;5052185;28;20041;-84
2022/01/30 01:47:06;;;;;;;77.63;27.80;;;;;;;;;;5052370;28;20412;-84
2022/01/30 01:49:39;;;;;;;64.07;26.17;;;;;;;;;;5051839;28;20266;-84
2022/01/30 01:54:42;;;;;;;68.55;26.45;;;;;;;;;;5053331;28;20396;-83
2022/01/30 01:57:10;;;;;;;53.53;22.90;;;;;;;;;;5069021;28;20029;-84
2022/01/30 01:59:37;;;;;;;62.22;24.80;;;;;;;;;;5053741;28;20029;-84
2022/01/30 02:02:19;;;;;;;60.80;23.20;;;;;;;;;;5053249;28;20025;-83
2022/01/30 02:04:58;;;;;;;52.35;22.90;;;;;;;;;;5051964;28;20045;-84
2022/01/30 02:08:10;;;;;;;56.15;23.42;;;;;;;;;;5045641;28;20057;-84
2022/01/30 02:10:57;;;;;;;44.45;20.17;;;;;;;;;;4337413;28;10000599;-83
2022/01/30 02:13:45;;;;;;;48.47;21.85;;;;;;;;;;5018547;28;20116;-84
2022/01/30 02:27:38;;;;;;;40.90;19.08;;;;;;;;;;5032865;28;20040;-83
2022/01/30 02:30:09;;;;;;;38.67;18.30;;;;;;;;;;5031124;28;20562;-83
2022/01/30 02:32:38;;;;;;;50.28;19.55;;;;;;;;;;5019908;28;20036;-83
2022/01/30 02:35:04;;;;;;;40.97;19.27;;;;;;;;;;5032536;28;20034;-83
2022/01/30 02:37:31;;;;;;;41.50;18.55;;;;;;;;;;5046141;28;20041;-84
2022/01/30 02:39:57;;;;;;;41.20;18.85;;;;;;;;;;5016331;28;20045;-84
2022/01/30 02:42:28;;;;;;;38.97;18.52;;;;;;;;;;5031525;28;20041;-83
2022/01/30 02:44:59;;;;;;;39.85;18.80;;;;;;;;;;5039145;28;20087;-83
2022/01/30 02:50:20;;;;;;;31.88;16.10;;;;;;;;;;5024005;28;20056;-84
2022/01/30 02:52:56;;;;;;;38.22;17.77;;;;;;;;;;5031111;28;20037;-84
2022/01/30 02:55:25;;;;;;;51.63;21.05;;;;;;;;;;5033340;28;20037;-83
2022/01/30 02:57:52;;;;;;;45.53;21.77;;;;;;;;;;5047054;28;20492;-82
2022/01/30 03:00:19;;;;;;;41.03;20.50;;;;;;;;;;5064409;28;20057;-82
2022/01/30 03:02:57;;;;;;;33.97;16.33;;;;;;;;;;5035333;28;20038;-82
2022/01/30 03:05:37;;;;;;;43.28;17.75;;;;;;;;;;5062524;28;20121;-82
2022/01/30 03:08:03;;;;;;;36.65;16.42;;;;;;;;;;5050515;28;20033;-81
2022/01/30 03:10:34;;;;;;;47.72;20.83;;;;;;;;;;5055818;28;20040;-82
2022/01/30 03:13:00;;;;;;;42.65;18.80;;;;;;;;;;5076218;28;20037;-82
2022/01/30 03:15:28;;;;;;;40.83;17.60;;;;;;;;;;5062417;28;20036;-82
2022/01/30 03:17:56;;;;;;;42.40;19.70;;;;;;;;;;5061625;28;20560;-82
2022/01/30 03:20:23;;;;;;;40.97;19.27;;;;;;;;;;5047812;28;20538;-82
2022/01/30 03:22:50;;;;;;;36.35;17.25;;;;;;;;;;5056885;28;20040;-83
2022/01/30 03:25:17;;;;;;;40.60;19.85;;;;;;;;;;5057168;28;20602;-82
2022/01/30 03:27:50;;;;;;;39.97;19.42;;;;;;;;;;5052232;28;20035;-82
2022/01/30 03:33:20;;;;;;;42.22;17.17;;;;;;;;;;5064490;28;20125;-81
2022/01/30 03:38:50;;;;;;;36.50;16.90;;;;;;;;;;5067952;28;20027;-84
2022/01/30 03:44:20;;;;;;;36.13;17.58;;;;;;;;;;5066890;28;20108;-87
2022/01/30 07:24:44;;;;;;;23.67;13.25;;;;;;;;;;5021437;23;20475;-89
2022/01/30 07:27:14;;;;;;;28.10;13.32;;;;;;;;;;5019993;28;20064;-86
2022/01/30 07:29:41;;;;;;;24.45;13.73;;;;;;;;;;5021548;28;20053;-86
2022/01/30 07:32:07;;;;;;;25.48;13.65;;;;;;;;;;5014022;28;20037;-87
2022/01/30 07:34:33;;;;;;;25.38;13.38;;;;;;;;;;5031931;28;20033;-88
2022/01/30 07:37:00;;;;;;;28.40;13.68;;;;;;;;;;5015218;28;20564;-86
2022/01/30 07:39:29;;;;;;;29.50;15.80;;;;;;;;;;5032231;28;20107;-86
2022/01/30 07:41:55;;;;;;;30.00;15.35;;;;;;;;;;5032055;28;20475;-87
2022/01/30 07:44:22;;;;;;;30.05;13.90;;;;;;;;;;5031794;28;20034;-87
2022/01/30 07:46:48;;;;;;;29.02;14.85;;;;;;;;;;5016800;28;20041;-86
2022/01/30 07:49:15;;;;;;;26.75;14.65;;;;;;;;;;5035202;28;20537;-86
2022/01/30 07:51:41;;;;;;;34.75;16.38;;;;;;;;;;5034975;28;20038;-85
2022/01/30 07:54:07;;;;;;;29.50;14.70;;;;;;;;;;5018945;28;20446;-85
2022/01/30 07:56:34;;;;;;;31.30;15.70;;;;;;;;;;5018786;28;20038;-87
2022/01/30 07:59:00;;;;;;;31.05;16.30;;;;;;;;;;5018834;28;20061;-86
2022/01/30 08:01:26;;;;;;;36.08;16.33;;;;;;;;;;5018250;28;20037;-86
2022/01/30 08:03:53;;;;;;;35.63;17.58;;;;;;;;;;5011729;28;20364;-86
2022/01/30 08:06:19;;;;;;;32.47;18.70;;;;;;;;;;5002133;28;20059;-86
2022/01/30 08:08:45;;;;;;;38.92;21.10;;;;;;;;;;5035853;28;20044;-87
2022/01/30 08:11:12;;;;;;;36.45;20.10;;;;;;;;;;5018804;28;20075;-87
2022/01/30 08:13:38;;;;;;;32.30;17.05;;;;;;;;;;5003465;28;20357;-87
2022/01/30 08:16:05;;;;;;;33.28;17.38;;;;;;;;;;5016853;28;20042;-88
2022/01/30 08:18:33;;;;;;;31.23;16.15;;;;;;;;;;5002198;28;20033;-86
2022/01/30 08:21:00;;;;;;;35.08;17.55;;;;;;;;;;5008481;28;20030;-85
2022/01/30 08:23:28;;;;;;;37.17;17.85;;;;;;;;;;4998991;28;20038;-86
2022/01/30 08:25:54;;;;;;;31.05;16.95;;;;;;;;;;5018525;28;20054;-86
2022/01/30 08:28:21;;;;;;;34.65;16.85;;;;;;;;;;5001583;28;20045;-86
2022/01/30 08:30:47;;;;;;;31.88;16.83;;;;;;;;;;5002031;28;20038;-87
2022/01/30 08:33:17;;;;;;;28.90;17.05;;;;;;;;;;5035673;28;20030;-87
2022/01/30 08:35:43;;;;;;;35.35;16.98;;;;;;;;;;5003185;28;20042;-86
2022/01/30 08:38:11;;;;;;;35.10;19.08;;;;;;;;;;5000849;28;20448;-86
2022/01/30 08:40:37;;;;;;;36.45;18.88;;;;;;;;;;5016545;28;20538;-85
2022/01/30 08:43:04;;;;;;;34.33;18.40;;;;;;;;;;5012834;28;20489;-85
2022/01/30 08:45:30;;;;;;;41.33;18.33;;;;;;;;;;5011551;28;20064;-85
2022/01/30 08:47:56;;;;;;;38.30;19.63;;;;;;;;;;5016646;28;20034;-85
2022/01/30 08:50:24;;;;;;;33.42;17.48;;;;;;;;;;5005930;28;20076;-86
2022/01/30 08:52:51;;;;;;;36.20;18.08;;;;;;;;;;5016477;28;20112;-85
2022/01/30 08:55:18;;;;;;;46.85;21.95;;;;;;;;;;5013239;28;20029;-86
2022/01/30 08:57:44;;;;;;;42.55;18.90;;;;;;;;;;5033186;28;20522;-86
2022/01/30 09:00:13;;;;;;;39.88;19.23;;;;;;;;;;5016429;28;20041;-86
2022/01/30 09:02:39;;;;;;;134.48;64.82;;;;;;;;;;5034053;28;20136;-84
2022/01/30 09:05:13;;;;;;;66.63;29.63;;;;;;;;;;5008050;28;20440;-85
2022/01/30 09:07:40;;;;;;;45.58;22.92;;;;;;;;;;5034530;28;20053;-86
2022/01/30 09:10:07;;;;;;;49.85;22.80;;;;;;;;;;5034788;28;20030;-87
2022/01/30 09:12:36;;;;;;;44.85;22.55;;;;;;;;;;5017591;28;20095;-86
2022/01/30 09:15:04;;;;;;;53.78;27.70;;;;;;;;;;5016135;28;20048;-86
2022/01/30 09:17:33;;;;;;;50.75;22.33;;;;;;;;;;5034789;28;20483;-85
2022/01/30 09:20:00;;;;;;;48.22;23.27;;;;;;;;;;5017452;28;20125;-87
2022/01/30 09:22:27;;;;;;;41.72;21.35;;;;;;;;;;5034018;28;20038;-85
2022/01/30 09:24:53;;;;;;;43.58;21.60;;;;;;;;;;5032872;28;20046;-85
2022/01/30 09:27:22;;;;;;;43.08;21.08;;;;;;;;;;5014486;28;20072;-86
2022/01/30 09:29:48;;;;;;;46.58;21.98;;;;;;;;;;5030746;28;20135;-88
2022/01/30 09:32:16;;;;;;;57.85;27.88;;;;;;;;;;4681935;28;10001230;-85
2022/01/30 09:34:42;;;;;;;43.85;21.77;;;;;;;;;;5030774;28;20281;-84
2022/01/30 09:37:09;;;;;;;43.28;22.10;;;;;;;;;;5030939;28;20041;-85
2022/01/30 09:39:36;;;;;;;47.00;23.05;;;;;;;;;;5032306;28;20057;-85
2022/01/30 09:42:03;;;;;;;43.67;21.92;;;;;;;;;;5034183;28;20029;-85
2022/01/30 09:44:30;;;;;;;39.05;21.38;;;;;;;;;;5016260;28;20076;-85
2022/01/30 09:46:56;;;;;;;37.20;20.92;;;;;;;;;;5016030;28;20033;-85
2022/01/30 09:49:29;;;;;;;39.80;21.63;;;;;;;;;;5016022;28;20132;-85
2022/01/30 09:51:55;;;;;;;44.78;20.58;;;;;;;;;;5017296;28;20052;-85
2022/01/30 09:54:22;;;;;;;44.90;21.38;;;;;;;;;;5012975;28;20061;-85
2022/01/30 09:56:48;;;;;;;42.22;21.13;;;;;;;;;;5017728;28;20439;-85
2022/01/30 09:59:15;;;;;;;38.47;20.33;;;;;;;;;;5033558;28;20040;-86
2022/01/30 10:01:41;;;;;;;43.75;21.67;;;;;;;;;;5016161;28;20072;-86
2022/01/30 10:04:08;;;;;;;43.05;22.90;;;;;;;;;;4999928;28;20033;-86
2022/01/30 10:06:55;;;;;;;46.17;22.65;;;;;;;;;;5016096;28;20037;-87
2022/01/30 10:09:27;;;;;;;39.88;20.15;;;;;;;;;;5032997;28;20076;-87
2022/01/30 10:12:09;;;;;;;48.55;22.70;;;;;;;;;;5019910;28;20033;-85
2022/01/30 10:14:47;;;;;;;45.17;22.27;;;;;;;;;;5028194;28;20083;-86
2022/01/30 10:17:24;;;;;;;51.92;25.10;;;;;;;;;;5013987;28;20040;-85
2022/01/30 10:20:08;;;;;;;49.97;24.67;;;;;;;;;;5033347;28;20428;-86
2022/01/30 10:22:36;;;;;;;53.42;24.15;;;;;;;;;;5033374;28;20111;-85
2022/01/30 10:25:17;;;;;;;51.05;24.67;;;;;;;;;;5014878;28;20041;-84
2022/01/30 10:27:46;;;;;;;59.47;27.20;;;;;;;;;;4991478;28;20083;-84
2022/01/30 10:30:12;;;;;;;51.80;25.00;;;;;;;;;;5032319;28;20076;-85
2022/01/30 10:32:38;;;;;;;63.67;27.95;;;;;;;;;;5035487;28;20025;-85
2022/01/30 10:35:06;;;;;;;58.85;28.75;;;;;;;;;;5014531;28;20038;-85
2022/01/30 10:37:33;;;;;;;54.53;25.35;;;;;;;;;;5014736;28;20388;-85
2022/01/30 10:40:06;;;;;;;62.70;29.08;;;;;;;;;;5022165;28;20095;-84
2022/01/30 10:42:40;;;;;;;54.92;25.35;;;;;;;;;;5011931;28;20383;-84
2022/01/30 10:45:11;;;;;;;57.97;27.48;;;;;;;;;;5031923;28;20038;-84
2022/01/30 10:47:42;;;;;;;60.28;28.35;;;;;;;;;;5015521;28;20083;-85
2022/01/30 10:50:12;;;;;;;68.57;28.35;;;;;;;;;;5015095;28;20471;-85
2022/01/30 10:52:50;;;;;;;60.25;27.13;;;;;;;;;;5033448;28;20053;-84
2022/01/30 10:55:17;;;;;;;56.28;26.63;;;;;;;;;;5015125;28;20038;-86
2022/01/30 10:57:45;;;;;;;64.03;28.05;;;;;;;;;;5015796;28;20041;-85
2022/01/30 11:00:12;;;;;;;61.83;26.92;;;;;;;;;;5033060;28;20084;-84
2022/01/30 11:02:42;;;;;;;59.63;27.83;;;;;;;;;;5015439;28;20040;-85
2022/01/30 11:05:13;;;;;;;65.43;29.20;;;;;;;;;;5026997;28;20042;-85
2022/01/30 11:07:39;;;;;;;58.80;26.88;;;;;;;;;;5017726;28;20084;-87
2022/01/30 11:10:20;;;;;;;64.00;27.48;;;;;;;;;;5032768;28;20387;-85
2022/01/30 11:12:56;;;;;;;62.58;28.48;;;;;;;;;;5029120;28;20088;-86
2022/01/30 11:15:35;;;;;;;65.30;30.23;;;;;;;;;;5032879;28;20033;-85
2022/01/30 11:18:05;;;;;;;64.28;28.63;;;;;;;;;;4671176;28;9999669;-86
2022/01/30 11:20:35;;;;;;;66.72;28.95;;;;;;;;;;5032480;28;20048;-84
2022/01/30 11:23:02;;;;;;;65.65;30.38;;;;;;;;;;5013704;28;20057;-85
2022/01/30 11:25:38;;;;;;;79.75;38.42;;;;;;;;;;5036155;28;20045;-84
2022/01/30 11:28:06;;;;;;;71.45;34.53;;;;;;;;;;5018885;28;20041;-86
2022/01/30 11:30:33;;;;;;;68.13;31.10;;;;;;;;;;5018388;28;20494;-85
2022/01/30 11:32:59;;;;;;;66.05;31.20;;;;;;;;;;5003578;28;20030;-85
2022/01/30 11:35:28;;;;;;;70.82;33.65;;;;;;;;;;5018960;28;20030;-85
2022/01/30 11:37:57;;;;;;;80.97;36.10;;;;;;;;;;5019208;28;20509;-85
2022/01/30 11:40:24;;;;;;;79.65;36.53;;;;;;;;;;5032542;28;20048;-86
2022/01/30 11:42:53;;;;;;;78.90;35.13;;;;;;;;;;5020224;28;20505;-85
2022/01/30 11:45:27;;;;;;;80.95;36.65;;;;;;;;;;5016296;28;20498;-85
2022/01/30 11:47:58;;;;;;;81.53;35.33;;;;;;;;;;5018498;28;20039;-86
2022/01/30 11:50:29;;;;;;;78.05;34.10;;;;;;;;;;5018655;28;20056;-84
2022/01/30 11:52:57;;;;;;;77.00;35.33;;;;;;;;;;5018630;28;20029;-86
2022/01/30 11:55:43;;;;;;;100.30;43.33;;;;;;;;;;5018465;28;20125;-85
2022/01/30 11:58:28;;;;;;;93.47;42.05;;;;;;;;;;5012306;28;20076;-85
2022/01/30 12:00:54;;;;;;;94.07;41.67;;;;;;;;;;5021314;28;20030;-86
2022/01/30 12:03:22;;;;;;;93.20;41.40;;;;;;;;;;5032288;28;20038;-85
2022/01/30 12:06:18;;;;;;;93.00;39.55;;;;;;;;;;5034890;28;20399;-84
2022/01/30 12:08:45;;;;;;;93.25;40.58;;;;;;;;;;5028321;28;20065;-86
2022/01/30 12:11:30;;;;;;;96.90;42.88;;;;;;;;;;5011854;28;20038;-85
2022/01/30 12:13:57;;;;;;;93.72;39.50;;;;;;;;;;5033886;28;20040;-86
2022/01/30 12:16:43;;;;;;;92.78;41.65;;;;;;;;;;5033170;28;20041;-86
2022/01/30 12:19:11;;;;;;;94.55;38.67;;;;;;;;;;5034067;28;20033;-85
2022/01/30 12:21:38;;;;;;;92.18;39.08;;;;;;;;;;5034539;28;20038;-85
2022/01/30 12:24:25;;;;;;;92.22;41.83;;;;;;;;;;5007991;28;20609;-87
2022/01/30 12:26:53;;;;;;;88.60;39.70;;;;;;;;;;4993344;28;20503;-84
2022/01/30 12:29:40;;;;;;;78.50;36.72;;;;;;;;;;5011737;28;20045;-85
2022/01/30 12:32:28;;;;;;;82.35;35.58;;;;;;;;;;5013079;28;20108;-87
2022/01/30 12:34:57;;;;;;;80.50;35.28;;;;;;;;;;5010320;28;20033;-86
2022/01/30 12:37:25;;;;;;;79.72;36.40;;;;;;;;;;5012569;28;20033;-86
2022/01/30 12:39:54;;;;;;;85.15;40.33;;;;;;;;;;5009541;28;20072;-86
2022/01/30 12:42:23;;;;;;;96.78;42.13;;;;;;;;;;5013928;28;20041;-85
2022/01/30 12:44:49;;;;;;;87.75;38.83;;;;;;;;;;5012249;28;20030;-86
2022/01/30 12:47:16;;;;;;;90.80;37.97;;;;;;;;;;5012273;28;20116;-85
2022/01/30 12:49:48;;;;;;;84.30;38.78;;;;;;;;;;5009487;28;20121;-85
2022/01/30 12:52:49;;;;;;;75.28;35.08;;;;;;;;;;5014051;28;20049;-87
2022/01/30 12:55:12;;;;;;;80.55;35.17;;;;;;;;;;5011258;28;20106;-86
2022/01/30 12:57:40;;;;;;;80.07;34.97;;;;;;;;;;4999860;28;20037;-86
2022/01/30 13:00:08;;;;;;;82.95;35.25;;;;;;;;;;5014205;28;20022;-86
2022/01/30 13:02:38;;;;;;;73.75;30.95;;;;;;;;;;5029025;28;20048;-85
2022/01/30 13:05:06;;;;;;;77.25;34.00;;;;;;;;;;5021161;28;20038;-87
2022/01/30 13:07:33;;;;;;;73.70;32.95;;;;;;;;;;5012631;28;20041;-86
2022/01/30 13:10:09;;;;;;;76.72;33.45;;;;;;;;;;5009415;28;20369;-86
2022/01/30 13:12:35;;;;;;;78.28;34.55;;;;;;;;;;5013112;28;20034;-87
2022/01/30 13:15:12;;;;;;;76.82;34.33;;;;;;;;;;4996743;28;20034;-86
2022/01/30 13:17:39;;;;;;;74.75;34.28;;;;;;;;;;4993657;28;20044;-86
2022/01/30 13:20:06;;;;;;;80.53;34.30;;;;;;;;;;4993404;28;20477;-87
2022/01/30 13:22:36;;;;;;;78.07;34.80;;;;;;;;;;5009156;28;20065;-86
2022/01/30 13:25:07;;;;;;;86.55;38.22;;;;;;;;;;5012519;28;20038;-86
2022/01/30 13:27:39;;;;;;;76.78;35.40;;;;;;;;;;5005177;28;20136;-86
2022/01/30 13:30:06;;;;;;;77.88;34.75;;;;;;;;;;5009947;28;20049;-87
2022/01/30 13:32:32;;;;;;;74.80;34.38;;;;;;;;;;5013611;28;20041;-86
2022/01/30 13:35:02;;;;;;;79.22;37.20;;;;;;;;;;5013839;28;20038;-86
2022/01/30 13:37:36;;;;;;;77.07;34.72;;;;;;;;;;5014708;28;20046;-86
2022/01/30 13:40:12;;;;;;;73.72;31.08;;;;;;;;;;5025979;28;20125;-86
2022/01/30 13:48:15;;;;;;;84.05;34.38;;;;;;;;;;5011379;28;20096;-87
2022/01/30 13:50:44;;;;;;;85.90;34.72;;;;;;;;;;5011133;28;20045;-87
2022/01/30 13:53:15;;;;;;;74.80;32.53;;;;;;;;;;5012472;28;20034;-86
2022/01/30 13:55:57;;;;;;;74.25;30.35;;;;;;;;;;5013955;28;20034;-86
2022/01/30 13:58:26;;;;;;;70.25;30.05;;;;;;;;;;5013681;28;20088;-86
2022/01/30 14:00:53;;;;;;;69.63;30.05;;;;;;;;;;5012194;28;20429;-86
2022/01/30 14:03:23;;;;;;;73.82;32.70;;;;;;;;;;5011694;28;20026;-86
2022/01/30 14:05:57;;;;;;;75.20;32.78;;;;;;;;;;5014254;28;20117;-86
2022/01/30 14:08:25;;;;;;;62.50;29.35;;;;;;;;;;5028876;28;20045;-87
2022/01/30 14:11:03;;;;;;;62.28;29.00;;;;;;;;;;5011567;28;20042;-87
2022/01/30 14:13:37;;;;;;;64.38;29.88;;;;;;;;;;4993186;28;20034;-86
2022/01/30 14:16:06;;;;;;;73.07;28.73;;;;;;;;;;5019846;28;20052;-89
2022/01/30 14:18:44;;;;;;;75.45;33.45;;;;;;;;;;5013108;28;20046;-86
2022/01/30 14:21:17;;;;;;;78.63;33.42;;;;;;;;;;5013492;28;20068;-86
2022/01/30 14:23:44;;;;;;;79.45;33.72;;;;;;;;;;5011963;28;20041;-87
2022/01/30 14:26:21;;;;;;;78.85;32.75;;;;;;;;;;4986909;28;20054;-86
2022/01/30 14:28:47;;;;;;;68.07;30.70;;;;;;;;;;5008913;28;20072;-86
2022/01/30 14:31:18;;;;;;;69.03;32.75;;;;;;;;;;5011414;28;20161;-86
2022/01/30 14:33:46;;;;;;;63.67;28.83;;;;;;;;;;5012555;28;20029;-86
2022/01/30 14:36:13;;;;;;;67.63;29.00;;;;;;;;;;5011773;28;20034;-86
2022/01/30 14:38:44;;;;;;;65.90;29.05;;;;;;;;;;5012540;28;20384;-86
2022/01/30 14:41:11;;;;;;;58.40;27.67;;;;;;;;;;5012490;28;20061;-87
2022/01/30 14:43:39;;;;;;;59.05;26.33;;;;;;;;;;4997081;28;20031;-87
2022/01/30 14:46:06;;;;;;;58.17;25.10;;;;;;;;;;4977206;28;20091;-87
2022/01/30 14:48:33;;;;;;;48.90;23.73;;;;;;;;;;4992471;28;20038;-86
2022/01/30 14:51:09;;;;;;;52.88;24.52;;;;;;;;;;4993007;28;20046;-88
2022/01/30 14:53:36;;;;;;;53.38;25.08;;;;;;;;;;4992560;28;20030;-87
2022/01/30 14:56:02;;;;;;;50.75;23.27;;;;;;;;;;5011894;28;20144;-87
2022/01/30 14:58:30;;;;;;;57.60;26.77;;;;;;;;;;5015035;28;20034;-86
2022/01/30 15:00:57;;;;;;;62.90;27.73;;;;;;;;;;5014853;28;20041;-86
2022/01/30 15:03:25;;;;;;;58.88;28.15;;;;;;;;;;5032942;28;20033;-87
2022/01/30 15:05:52;;;;;;;57.88;29.48;;;;;;;;;;4999106;28;20050;-87
2022/01/30 15:08:21;;;;;;;74.63;32.70;;;;;;;;;;5005482;28;20045;-86
2022/01/30 15:10:48;;;;;;;74.65;35.10;;;;;;;;;;5017086;28;20030;-86
2022/01/30 15:13:19;;;;;;;82.93;34.65;;;;;;;;;;4995919;28;20171;-87
2022/01/30 15:15:46;;;;;;;78.40;33.58;;;;;;;;;;4997468;28;20066;-87
2022/01/30 15:18:20;;;;;;;82.70;34.13;;;;;;;;;;5014032;28;20369;-86
2022/01/30 15:20:47;;;;;;;82.55;34.33;;;;;;;;;;5002246;28;20473;-86
2022/01/30 15:23:14;;;;;;;78.65;34.13;;;;;;;;;;5012552;28;20129;-88
2022/01/30 15:25:43;;;;;;;79.93;33.72;;;;;;;;;;5005116;28;20045;-86
2022/01/30 15:28:09;;;;;;;85.15;33.63;;;;;;;;;;5015210;28;20376;-87
2022/01/30 15:30:36;;;;;;;72.47;33.38;;;;;;;;;;5015183;28;20050;-87
2022/01/30 15:33:02;;;;;;;78.88;31.95;;;;;;;;;;5015340;28;20041;-87
2022/01/30 15:35:28;;;;;;;82.38;34.35;;;;;;;;;;5015598;28;20488;-87
2022/01/30 15:37:55;;;;;;;78.65;33.60;;;;;;;;;;5012141;28;20038;-86
2022/01/30 15:40:21;;;;;;;87.75;35.72;;;;;;;;;;5017632;28;20037;-86
2022/01/30 15:42:48;;;;;;;83.63;36.25;;;;;;;;;;5031843;28;20476;-86
2022/01/30 15:50:30;;;;;;;83.88;33.70;;;;;;;;;;5005193;28;20407;-87
2022/01/30 15:52:56;;;;;;;77.32;33.25;;;;;;;;;;5015114;28;20030;-85
2022/01/30 15:55:24;;;;;;;109.75;43.70;;;;;;;;;;5011348;28;20049;-86
2022/01/30 15:57:51;;;;;;;61.50;23.95;;;;;;;;;;5014768;28;20113;-86
2022/01/30 16:00:18;;;;;;;53.63;22.13;;;;;;;;;;5014904;28;20121;-86
2022/01/30 16:02:45;;;;;;;71.70;29.00;;;;;;;;;;5015412;28;20026;-87
2022/01/30 16:05:12;;;;;;;82.90;31.33;;;;;;;;;;5016152;28;20046;-86
2022/01/30 16:07:39;;;;;;;92.25;37.58;;;;;;;;;;4995501;28;20042;-86
2022/01/30 16:10:11;;;;;;;68.30;28.38;;;;;;;;;;5010984;28;20472;-86
2022/01/30 16:15:37;;;;;;;56.85;23.83;;;;;;;;;;5013125;28;20041;-86
2022/01/30 16:18:12;;;;;;;56.78;24.52;;;;;;;;;;5014754;28;20124;-89
2022/01/30 16:20:49;;;;;;;60.45;26.10;;;;;;;;;;4667065;28;9999950;-87
2022/01/30 16:23:17;;;;;;;65.50;28.33;;;;;;;;;;5010553;28;20065;-87
2022/01/30 16:25:45;;;;;;;81.43;30.13;;;;;;;;;;5013923;28;20046;-87
2022/01/30 16:28:12;;;;;;;74.25;30.48;;;;;;;;;;5013891;28;20054;-87
2022/01/30 16:30:38;;;;;;;74.20;29.95;;;;;;;;;;5013919;28;20045;-87
2022/01/30 16:33:05;;;;;;;73.72;29.10;;;;;;;;;;5016213;28;20095;-88
2022/01/30 16:35:32;;;;;;;58.83;22.35;;;;;;;;;;5013634;28;20125;-86
2022/01/30 16:38:05;;;;;;;52.50;22.80;;;;;;;;;;5012192;28;20040;-86
2022/01/30 16:40:32;;;;;;;52.40;22.23;;;;;;;;;;5014351;28;20176;-87
2022/01/30 16:42:58;;;;;;;47.15;19.35;;;;;;;;;;5015615;28;20177;-86
2022/01/30 16:45:31;;;;;;;60.30;21.58;;;;;;;;;;5019740;28;20046;-86
2022/01/30 16:48:03;;;;;;;53.22;23.23;;;;;;;;;;5014660;28;20511;-86
2022/01/30 16:50:32;;;;;;;58.83;21.73;;;;;;;;;;5021659;28;20141;-86
2022/01/30 16:53:00;;;;;;;48.97;20.67;;;;;;;;;;4998119;28;20101;-86
2022/01/30 16:55:29;;;;;;;50.10;21.42;;;;;;;;;;5030829;28;20037;-86
2022/01/30 16:58:00;;;;;;;47.75;20.05;;;;;;;;;;5031116;28;20029;-85
2022/01/30 17:00:27;;;;;;;45.95;18.58;;;;;;;;;;5015234;28;20112;-86
2022/01/30 17:02:54;;;;;;;37.67;13.95;;;;;;;;;;5021704;28;20049;-86
2022/01/30 17:05:20;;;;;;;27.63;13.10;;;;;;;;;;5030962;28;20041;-86
2022/01/30 17:07:47;;;;;;;30.45;13.85;;;;;;;;;;5014120;28;20124;-86
2022/01/30 17:10:17;;;;;;;31.98;14.30;;;;;;;;;;5014888;28;20038;-86
2022/01/30 17:15:40;;;;;;;43.97;19.20;;;;;;;;;;5000939;28;20100;-86
2022/01/30 17:18:09;;;;;;;52.38;22.65;;;;;;;;;;5014353;28;20113;-87
2022/01/30 17:20:49;;;;;;;52.13;20.90;;;;;;;;;;5012589;28;20050;-85
2022/01/30 17:23:16;;;;;;;56.55;23.20;;;;;;;;;;5013958;28;20029;-86
2022/01/30 17:25:43;;;;;;;55.78;21.52;;;;;;;;;;5012206;28;20050;-86
2022/01/30 17:28:10;;;;;;;60.08;22.80;;;;;;;;;;5013458;28;20030;-86
2022/01/30 17:30:38;;;;;;;60.13;23.15;;;;;;;;;;5010612;28;20086;-87
2022/01/30 17:33:04;;;;;;;59.60;23.92;;;;;;;;;;5029322;28;20038;-87
2022/01/30 17:35:35;;;;;;;56.47;22.27;;;;;;;;;;5012699;28;20038;-86
2022/01/30 17:38:02;;;;;;;62.08;23.35;;;;;;;;;;5014044;28;20115;-86
2022/01/30 17:40:31;;;;;;;57.85;23.23;;;;;;;;;;5014591;28;20033;-86
2022/01/30 17:42:58;;;;;;;71.20;27.70;;;;;;;;;;5014152;28;20033;-87
2022/01/30 17:45:25;;;;;;;93.32;35.83;;;;;;;;;;5013374;28;20038;-87
2022/01/30 17:47:59;;;;;;;86.22;36.47;;;;;;;;;;5014411;28;20037;-86
2022/01/30 17:50:33;;;;;;;89.18;35.53;;;;;;;;;;5013461;28;20483;-87
2022/01/30 17:52:59;;;;;;;80.35;34.28;;;;;;;;;;5013210;28;20041;-86
2022/01/30 17:55:27;;;;;;;93.95;36.63;;;;;;;;;;5014199;28;20033;-87
2022/01/30 17:57:54;;;;;;;90.82;39.15;;;;;;;;;;4994247;28;20041;-86
2022/01/30 18:00:21;;;;;;;104.78;41.22;;;;;;;;;;5004601;28;20128;-86
2022/01/30 18:02:47;;;;;;;97.63;41.53;;;;;;;;;;5029561;28;20112;-86
2022/01/30 18:05:15;;;;;;;103.50;41.70;;;;;;;;;;4993232;28;20499;-88
2022/01/30 18:07:46;;;;;;;101.60;41.95;;;;;;;;;;5011483;28;20054;-86
2022/01/30 18:10:12;;;;;;;89.00;37.75;;;;;;;;;;5013822;28;20421;-86
2022/01/30 18:12:39;;;;;;;85.53;37.30;;;;;;;;;;5009854;28;20129;-88
2022/01/30 18:15:07;;;;;;;81.00;31.55;;;;;;;;;;5010677;28;20038;-86
2022/01/30 18:17:33;;;;;;;88.90;33.15;;;;;;;;;;5011962;28;20042;-86
2022/01/30 18:20:00;;;;;;;97.60;34.53;;;;;;;;;;5013107;28;20045;-86
2022/01/30 18:22:27;;;;;;;88.57;34.50;;;;;;;;;;5012983;28;20543;-86
2022/01/30 18:24:58;;;;;;;87.35;34.15;;;;;;;;;;5012644;28;20045;-86
2022/01/30 18:27:27;;;;;;;82.53;33.15;;;;;;;;;;5007853;28;20062;-86
2022/01/30 18:29:54;;;;;;;85.30;34.92;;;;;;;;;;5009506;28;20539;-86
2022/01/30 18:32:21;;;;;;;95.82;36.47;;;;;;;;;;5012502;28;20041;-86
2022/01/30 18:34:48;;;;;;;81.57;34.65;;;;;;;;;;5009696;28;20042;-86
2022/01/30 18:37:21;;;;;;;78.97;32.92;;;;;;;;;;5006566;28;20030;-86
2022/01/30 18:42:22;;;;;;;67.20;26.17;;;;;;;;;;5010256;28;20474;-86
2022/01/30 18:44:49;;;;;;;59.03;24.88;;;;;;;;;;4996031;28;20545;-86
2022/01/30 18:47:15;;;;;;;54.10;24.00;;;;;;;;;;5007534;28;20038;-86
2022/01/30 18:49:43;;;;;;;61.47;25.00;;;;;;;;;;5012128;28;20037;-86
2022/01/30 18:52:09;;;;;;;61.80;25.02;;;;;;;;;;5011591;28;20038;-85
2022/01/30 18:54:36;;;;;;;66.63;26.20;;;;;;;;;;5028892;28;20102;-87
2022/01/30 18:57:02;;;;;;;60.13;24.73;;;;;;;;;;5013722;28;20088;-86
2022/01/30 18:59:29;;;;;;;59.47;24.85;;;;;;;;;;5011397;28;20053;-86
2022/01/30 19:01:56;;;;;;;56.42;21.60;;;;;;;;;;5012039;28;20042;-88
2022/01/30 19:04:22;;;;;;;54.53;22.05;;;;;;;;;;5009114;28;20038;-85
2022/01/30 19:06:50;;;;;;;49.38;20.88;;;;;;;;;;5026524;28;20034;-86
2022/01/30 19:09:17;;;;;;;50.28;20.95;;;;;;;;;;5010170;28;20034;-86